sensor_id;sensor_type;location;lat;lon;timestamp;pressure;altitude;pressure_sealevel;temperature;humidity
36798;BME280;22748;8.426;99.512;2023-04-06T00:01:18;100577.00;;;29.30;59.18
36798;BME280;22748;8.426;99.512;2023-04-06T00:03:54;100574.13;;;29.25;59.26
36798;BME280;22748;8.426;99.512;2023-04-06T00:06:34;100589.66;;;29.23;59.72
36798;BME280;22748;8.426;99.512;2023-04-06T00:09:05;100591.50;;;29.22;59.47
36798;BME280;22748;8.426;99.512;2023-04-06T00:11:36;100595.69;;;29.18;60.02
36798;BME280;22748;8.426;99.512;2023-04-06T00:14:11;100586.56;;;29.19;60.34
36798;BME280;22748;8.426;99.512;2023-04-06T00:16:46;100592.72;;;29.26;60.04
36798;BME280;22748;8.426;99.512;2023-04-06T00:19:17;100601.00;;;29.31;60.32
36798;BME280;22748;8.426;99.512;2023-04-06T00:21:46;100604.94;;;29.36;59.72
36798;BME280;22748;8.426;99.512;2023-04-06T00:24:24;100609.88;;;29.39;59.93
36798;BME280;22748;8.426;99.512;2023-04-06T00:26:55;100617.50;;;29.42;59.93
36798;BME280;22748;8.426;99.512;2023-04-06T00:29:29;100620.81;;;29.44;60.24
36798;BME280;22748;8.426;99.512;2023-04-06T00:31:59;100616.47;;;29.43;60.13
36798;BME280;22748;8.426;99.512;2023-04-06T00:34:35;100620.00;;;29.43;60.46
36798;BME280;22748;8.426;99.512;2023-04-06T00:37:06;100621.41;;;29.46;60.18
36798;BME280;22748;8.426;99.512;2023-04-06T00:39:38;100630.72;;;29.50;60.21
36798;BME280;22748;8.426;99.512;2023-04-06T00:42:15;100643.78;;;29.53;60.25
36798;BME280;22748;8.426;99.512;2023-04-06T00:44:54;100644.78;;;29.52;60.87
36798;BME280;22748;8.426;99.512;2023-04-06T00:47:45;100642.31;;;29.50;60.89
36798;BME280;22748;8.426;99.512;2023-04-06T00:50:19;100651.22;;;29.51;61.15
36798;BME280;22748;8.426;99.512;2023-04-06T00:52:49;100646.88;;;29.50;60.94
36798;BME280;22748;8.426;99.512;2023-04-06T00:55:20;100650.34;;;29.57;61.13
36798;BME280;22748;8.426;99.512;2023-04-06T00:57:57;100650.56;;;29.62;61.41
36798;BME280;22748;8.426;99.512;2023-04-06T01:00:39;100651.78;;;29.66;61.18
36798;BME280;22748;8.426;99.512;2023-04-06T01:03:09;100658.41;;;29.70;60.43
36798;BME280;22748;8.426;99.512;2023-04-06T01:05:40;100670.38;;;29.74;60.30
36798;BME280;22748;8.426;99.512;2023-04-06T01:08:11;100677.00;;;29.79;60.66
36798;BME280;22748;8.426;99.512;2023-04-06T01:10:41;100678.47;;;29.81;61.13
36798;BME280;22748;8.426;99.512;2023-04-06T01:13:12;100682.78;;;29.82;60.83
36798;BME280;22748;8.426;99.512;2023-04-06T01:15:46;100696.88;;;29.84;61.19
36798;BME280;22748;8.426;99.512;2023-04-06T01:18:20;100699.34;;;29.86;60.88
36798;BME280;22748;8.426;99.512;2023-04-06T01:20:55;100708.66;;;29.90;61.00
36798;BME280;22748;8.426;99.512;2023-04-06T01:23:27;100708.44;;;29.85;61.33
36798;BME280;22748;8.426;99.512;2023-04-06T01:25:59;100716.94;;;29.88;61.26
36798;BME280;22748;8.426;99.512;2023-04-06T01:28:30;100718.78;;;29.94;61.55
36798;BME280;22748;8.426;99.512;2023-04-06T01:31:01;100727.47;;;29.97;60.61
36798;BME280;22748;8.426;99.512;2023-04-06T01:33:40;100720.38;;;30.02;60.94
36798;BME280;22748;8.426;99.512;2023-04-06T01:36:11;100724.97;;;30.02;60.67
36798;BME280;22748;8.426;99.512;2023-04-06T01:38:44;100725.78;;;30.02;61.01
36798;BME280;22748;8.426;99.512;2023-04-06T01:41:15;100728.06;;;30.05;61.13
36798;BME280;22748;8.426;99.512;2023-04-06T01:43:48;100736.50;;;30.09;60.64
36798;BME280;22748;8.426;99.512;2023-04-06T01:46:23;100746.03;;;30.11;60.97
36798;BME280;22748;8.426;99.512;2023-04-06T01:48:55;100748.31;;;30.14;61.04
36798;BME280;22748;8.426;99.512;2023-04-06T01:51:28;100747.25;;;30.15;60.94
36798;BME280;22748;8.426;99.512;2023-04-06T01:54:02;100752.22;;;30.19;60.78
36798;BME280;22748;8.426;99.512;2023-04-06T01:56:32;100757.78;;;30.24;60.05
36798;BME280;22748;8.426;99.512;2023-04-06T01:59:04;100759.44;;;30.25;60.02
36798;BME280;22748;8.426;99.512;2023-04-06T02:01:35;100760.88;;;30.27;59.80
36798;BME280;22748;8.426;99.512;2023-04-06T02:04:06;100754.66;;;30.27;60.32
36798;BME280;22748;8.426;99.512;2023-04-06T02:06:38;100757.56;;;30.32;59.79
36798;BME280;22748;8.426;99.512;2023-04-06T02:09:13;100760.44;;;30.37;60.20
36798;BME280;22748;8.426;99.512;2023-04-06T02:11:44;100764.16;;;30.43;60.08
36798;BME280;22748;8.426;99.512;2023-04-06T02:14:14;100770.34;;;30.43;59.72
36798;BME280;22748;8.426;99.512;2023-04-06T02:16:46;100767.81;;;30.48;59.68
36798;BME280;22748;8.426;99.512;2023-04-06T02:19:16;100770.34;;;30.43;59.72
36798;BME280;22748;8.426;99.512;2023-04-06T02:21:46;100769.91;;;30.46;59.76
36798;BME280;22748;8.426;99.512;2023-04-06T02:24:18;100766.78;;;30.49;59.72
36798;BME280;22748;8.426;99.512;2023-04-06T02:26:49;100777.31;;;30.58;59.99
36798;BME280;22748;8.426;99.512;2023-04-06T02:29:20;100778.31;;;30.63;59.40
36798;BME280;22748;8.426;99.512;2023-04-06T02:31:51;100776.03;;;30.67;59.54
36798;BME280;22748;8.426;99.512;2023-04-06T02:34:23;100777.25;;;30.71;59.00
36798;BME280;22748;8.426;99.512;2023-04-06T02:36:54;100781.16;;;30.75;59.30
36798;BME280;22748;8.426;99.512;2023-04-06T02:39:26;100781.31;;;30.80;58.52
36798;BME280;22748;8.426;99.512;2023-04-06T02:41:58;100784.00;;;30.80;58.68
36798;BME280;22748;8.426;99.512;2023-04-06T02:44:29;100779.66;;;30.79;58.73
36798;BME280;22748;8.426;99.512;2023-04-06T02:47:00;100786.72;;;30.80;59.20
36798;BME280;22748;8.426;99.512;2023-04-06T02:49:31;100784.63;;;30.82;59.18
36798;BME280;22748;8.426;99.512;2023-04-06T02:52:02;100778.75;;;30.92;59.07
36798;BME280;22748;8.426;99.512;2023-04-06T02:54:34;100779.91;;;31.03;58.66
36798;BME280;22748;8.426;99.512;2023-04-06T02:57:05;100780.72;;;31.10;58.18
36798;BME280;22748;8.426;99.512;2023-04-06T02:59:34;100777.81;;;31.05;58.86
36798;BME280;22748;8.426;99.512;2023-04-06T03:02:06;100774.66;;;31.14;58.32
36798;BME280;22748;8.426;99.512;2023-04-06T03:04:36;100766.56;;;31.14;58.27
36798;BME280;22748;8.426;99.512;2023-04-06T03:07:07;100768.78;;;31.17;57.87
36798;BME280;22748;8.426;99.512;2023-04-06T03:09:40;100776.00;;;31.24;57.67
36798;BME280;22748;8.426;99.512;2023-04-06T03:12:11;100767.84;;;31.30;57.61
36798;BME280;22748;8.426;99.512;2023-04-06T03:14:50;100760.56;;;31.31;57.07
36798;BME280;22748;8.426;99.512;2023-04-06T03:17:21;100756.47;;;31.28;57.52
36798;BME280;22748;8.426;99.512;2023-04-06T03:19:52;100755.13;;;31.37;57.30
36798;BME280;22748;8.426;99.512;2023-04-06T03:22:21;100749.72;;;31.37;57.62
36798;BME280;22748;8.426;99.512;2023-04-06T03:24:54;100745.34;;;31.43;57.39
36798;BME280;22748;8.426;99.512;2023-04-06T03:27:26;100746.69;;;31.52;56.70
36798;BME280;22748;8.426;99.512;2023-04-06T03:29:58;100745.78;;;31.59;56.98
36798;BME280;22748;8.426;99.512;2023-04-06T03:32:32;100745.72;;;31.65;56.80
36798;BME280;22748;8.426;99.512;2023-04-06T03:35:03;100747.31;;;31.73;56.37
36798;BME280;22748;8.426;99.512;2023-04-06T03:37:35;100741.22;;;31.77;56.19
36798;BME280;22748;8.426;99.512;2023-04-06T03:40:09;100744.28;;;31.81;56.51
36798;BME280;22748;8.426;99.512;2023-04-06T03:42:41;100751.06;;;31.90;56.33
36798;BME280;22748;8.426;99.512;2023-04-06T03:45:12;100742.69;;;31.92;55.94
36798;BME280;22748;8.426;99.512;2023-04-06T03:47:43;100741.41;;;31.94;56.00
36798;BME280;22748;8.426;99.512;2023-04-06T03:50:14;100737.06;;;31.93;55.81
36798;BME280;22748;8.426;99.512;2023-04-06T03:52:44;100744.31;;;32.00;55.23
36798;BME280;22748;8.426;99.512;2023-04-06T03:55:18;100745.84;;;32.07;55.37
36798;BME280;22748;8.426;99.512;2023-04-06T03:57:49;100736.84;;;32.13;55.05
36798;BME280;22748;8.426;99.512;2023-04-06T04:00:20;100724.06;;;32.21;55.16
36798;BME280;22748;8.426;99.512;2023-04-06T04:02:51;100726.94;;;32.07;55.15
36798;BME280;22748;8.426;99.512;2023-04-06T04:05:21;100728.00;;;31.88;55.31
36798;BME280;22748;8.426;99.512;2023-04-06T04:07:54;100717.50;;;31.98;55.83
36798;BME280;22748;8.426;99.512;2023-04-06T04:10:27;100719.44;;;32.09;55.60
36798;BME280;22748;8.426;99.512;2023-04-06T04:13:01;100710.53;;;32.21;55.04
36798;BME280;22748;8.426;99.512;2023-04-06T04:15:33;100702.94;;;32.29;54.50
36798;BME280;22748;8.426;99.512;2023-04-06T04:18:03;100702.28;;;32.34;54.85
36798;BME280;22748;8.426;99.512;2023-04-06T04:20:37;100696.06;;;32.45;54.31
36798;BME280;22748;8.426;99.512;2023-04-06T04:23:11;100701.00;;;32.48;54.14
36798;BME280;22748;8.426;99.512;2023-04-06T04:25:47;100692.06;;;32.48;53.89
36798;BME280;22748;8.426;99.512;2023-04-06T04:28:19;100679.28;;;32.55;53.85
36798;BME280;22748;8.426;99.512;2023-04-06T04:30:51;100672.13;;;32.61;53.99
36798;BME280;22748;8.426;99.512;2023-04-06T04:33:22;100668.84;;;32.58;53.77
36798;BME280;22748;8.426;99.512;2023-04-06T04:35:53;100673.06;;;32.54;53.44
36798;BME280;22748;8.426;99.512;2023-04-06T04:38:31;100670.03;;;32.63;53.45
36798;BME280;22748;8.426;99.512;2023-04-06T04:43:57;100649.59;;;32.67;53.05
36798;BME280;22748;8.426;99.512;2023-04-06T04:46:32;100648.03;;;32.83;53.42
36798;BME280;22748;8.426;99.512;2023-04-06T04:49:03;100656.53;;;32.86;52.85
36798;BME280;22748;8.426;99.512;2023-04-06T04:51:34;100646.50;;;32.98;52.47
36798;BME280;22748;8.426;99.512;2023-04-06T04:54:05;100648.97;;;33.00;52.38
36798;BME280;22748;8.426;99.512;2023-04-06T04:56:39;100643.56;;;33.00;52.71
36798;BME280;22748;8.426;99.512;2023-04-06T04:59:13;100633.09;;;33.04;52.17
36798;BME280;22748;8.426;99.512;2023-04-06T05:01:44;100638.50;;;33.04;52.27
36798;BME280;22748;8.426;99.512;2023-04-06T05:04:15;100629.31;;;33.05;51.69
36798;BME280;22748;8.426;99.512;2023-04-06T05:06:49;100629.81;;;33.02;52.23
36798;BME280;22748;8.426;99.512;2023-04-06T05:09:30;100613.34;;;32.91;52.41
36798;BME280;22748;8.426;99.512;2023-04-06T05:12:08;100618.75;;;32.91;52.64
36798;BME280;22748;8.426;99.512;2023-04-06T05:14:38;100613.44;;;32.96;51.27
36798;BME280;22748;8.426;99.512;2023-04-06T05:17:10;100602.75;;;33.02;51.29
36798;BME280;22748;8.426;99.512;2023-04-06T05:19:41;100598.97;;;33.03;51.21
36798;BME280;22748;8.426;99.512;2023-04-06T05:22:21;100592.66;;;33.09;51.12
36798;BME280;22748;8.426;99.512;2023-04-06T05:24:55;100583.59;;;33.15;51.09
36798;BME280;22748;8.426;99.512;2023-04-06T05:27:34;100580.53;;;33.11;50.93
36798;BME280;22748;8.426;99.512;2023-04-06T05:30:09;100579.56;;;33.17;49.65
36798;BME280;22748;8.426;99.512;2023-04-06T05:32:40;100572.03;;;33.19;49.67
36798;BME280;22748;8.426;99.512;2023-04-06T05:35:12;100560.41;;;33.19;50.42
36798;BME280;22748;8.426;99.512;2023-04-06T05:37:44;100551.69;;;33.17;50.72
36798;BME280;22748;8.426;99.512;2023-04-06T05:40:15;100562.13;;;33.25;50.91
36798;BME280;22748;8.426;99.512;2023-04-06T05:42:49;100558.94;;;33.28;50.13
36798;BME280;22748;8.426;99.512;2023-04-06T05:45:19;100549.44;;;33.26;49.79
36798;BME280;22748;8.426;99.512;2023-04-06T05:47:49;100540.59;;;33.30;49.84
36798;BME280;22748;8.426;99.512;2023-04-06T05:50:21;100543.88;;;33.32;49.19
36798;BME280;22748;8.426;99.512;2023-04-06T05:52:58;100530.41;;;33.37;49.13
36798;BME280;22748;8.426;99.512;2023-04-06T05:55:35;100535.69;;;33.44;49.13
36798;BME280;22748;8.426;99.512;2023-04-06T05:58:09;100526.38;;;33.52;49.00
36798;BME280;22748;8.426;99.512;2023-04-06T06:00:40;100518.31;;;33.57;48.78
36798;BME280;22748;8.426;99.512;2023-04-06T06:03:13;100514.09;;;33.61;48.85
36798;BME280;22748;8.426;99.512;2023-04-06T06:05:45;100514.91;;;33.62;48.44
36798;BME280;22748;8.426;99.512;2023-04-06T06:08:16;100503.75;;;33.58;47.98
36798;BME280;22748;8.426;99.512;2023-04-06T06:10:47;100499.13;;;33.58;48.44
36798;BME280;22748;8.426;99.512;2023-04-06T06:13:26;100493.97;;;33.57;48.37
36798;BME280;22748;8.426;99.512;2023-04-06T06:15:57;100483.56;;;33.66;46.68
36798;BME280;22748;8.426;99.512;2023-04-06T06:18:27;100487.66;;;33.68;46.65
36798;BME280;22748;8.426;99.512;2023-04-06T06:21:03;100476.84;;;33.68;46.90
36798;BME280;22748;8.426;99.512;2023-04-06T06:23:33;100469.78;;;33.67;47.68
36798;BME280;22748;8.426;99.512;2023-04-06T06:26:04;100469.22;;;33.65;48.18
36798;BME280;22748;8.426;99.512;2023-04-06T06:28:37;100472.41;;;33.62;47.32
36798;BME280;22748;8.426;99.512;2023-04-06T06:31:07;100456.50;;;33.66;47.73
36798;BME280;22748;8.426;99.512;2023-04-06T06:33:37;100449.69;;;33.63;47.26
36798;BME280;22748;8.426;99.512;2023-04-06T06:36:08;100457.00;;;33.63;47.45
36798;BME280;22748;8.426;99.512;2023-04-06T06:38:39;100443.53;;;33.68;47.35
36798;BME280;22748;8.426;99.512;2023-04-06T06:41:09;100438.75;;;33.75;47.28
36798;BME280;22748;8.426;99.512;2023-04-06T06:44:02;100432.19;;;33.71;47.64
36798;BME280;22748;8.426;99.512;2023-04-06T06:46:33;100436.91;;;33.75;47.05
36798;BME280;22748;8.426;99.512;2023-04-06T06:49:06;100437.78;;;33.81;46.69
36798;BME280;22748;8.426;99.512;2023-04-06T06:51:38;100432.03;;;33.77;45.94
36798;BME280;22748;8.426;99.512;2023-04-06T06:54:09;100430.22;;;33.83;47.12
36798;BME280;22748;8.426;99.512;2023-04-06T06:56:39;100426.47;;;33.84;46.41
36798;BME280;22748;8.426;99.512;2023-04-06T06:59:12;100422.44;;;33.87;45.69
36798;BME280;22748;8.426;99.512;2023-04-06T07:01:44;100420.31;;;33.89;45.62
36798;BME280;22748;8.426;99.512;2023-04-06T07:04:15;100419.38;;;34.00;46.00
36798;BME280;22748;8.426;99.512;2023-04-06T07:06:45;100411.88;;;34.07;45.09
36798;BME280;22748;8.426;99.512;2023-04-06T07:09:16;100411.88;;;34.07;45.61
36798;BME280;22748;8.426;99.512;2023-04-06T07:11:46;100410.72;;;34.20;45.76
36798;BME280;22748;8.426;99.512;2023-04-06T07:14:22;100400.50;;;34.27;45.42
36798;BME280;22748;8.426;99.512;2023-04-06T07:16:52;100384.63;;;34.36;45.44
36798;BME280;22748;8.426;99.512;2023-04-06T07:19:22;100386.09;;;34.44;45.29
36798;BME280;22748;8.426;99.512;2023-04-06T07:21:53;100384.25;;;34.49;45.17
36798;BME280;22748;8.426;99.512;2023-04-06T07:24:24;100383.19;;;34.50;45.16
36798;BME280;22748;8.426;99.512;2023-04-06T07:26:55;100377.00;;;34.55;45.13
36798;BME280;22748;8.426;99.512;2023-04-06T07:29:28;100376.47;;;34.58;45.18
36798;BME280;22748;8.426;99.512;2023-04-06T07:31:58;100370.06;;;34.64;44.65
36798;BME280;22748;8.426;99.512;2023-04-06T07:34:30;100365.75;;;34.63;45.20
36798;BME280;22748;8.426;99.512;2023-04-06T07:37:01;100357.59;;;34.63;45.27
36798;BME280;22748;8.426;99.512;2023-04-06T07:39:32;100353.00;;;34.64;45.27
36798;BME280;22748;8.426;99.512;2023-04-06T07:42:03;100348.13;;;34.66;44.68
36798;BME280;22748;8.426;99.512;2023-04-06T07:44:35;100337.84;;;34.68;44.62
36798;BME280;22748;8.426;99.512;2023-04-06T07:47:05;100329.47;;;34.69;44.05
36798;BME280;22748;8.426;99.512;2023-04-06T07:49:35;100330.28;;;34.70;43.79
36798;BME280;22748;8.426;99.512;2023-04-06T07:52:06;100324.28;;;34.68;44.20
36798;BME280;22748;8.426;99.512;2023-04-06T07:54:36;100327.56;;;34.70;43.76
36798;BME280;22748;8.426;99.512;2023-04-06T07:57:06;100335.81;;;34.80;43.44
36798;BME280;22748;8.426;99.512;2023-04-06T07:59:38;100322.84;;;34.87;43.13
36798;BME280;22748;8.426;99.512;2023-04-06T08:02:08;100320.63;;;34.84;43.38
36798;BME280;22748;8.426;99.512;2023-04-06T08:04:38;100313.06;;;34.86;43.47
36798;BME280;22748;8.426;99.512;2023-04-06T08:07:22;100302.75;;;34.88;43.44
36798;BME280;22748;8.426;99.512;2023-04-06T08:09:53;100296.28;;;34.89;43.85
36798;BME280;22748;8.426;99.512;2023-04-06T08:12:23;100296.78;;;34.86;43.57
36798;BME280;22748;8.426;99.512;2023-04-06T08:14:55;100285.69;;;34.88;44.39
36798;BME280;22748;8.426;99.512;2023-04-06T08:17:32;100288.41;;;34.93;43.79
36798;BME280;22748;8.426;99.512;2023-04-06T08:20:04;100280.03;;;34.94;43.86
36798;BME280;22748;8.426;99.512;2023-04-06T08:22:36;100274.34;;;34.96;43.29
36798;BME280;22748;8.426;99.512;2023-04-06T08:25:06;100266.47;;;34.94;43.05
36798;BME280;22748;8.426;99.512;2023-04-06T08:27:38;100260.19;;;34.89;42.71
36798;BME280;22748;8.426;99.512;2023-04-06T08:30:10;100256.66;;;34.88;42.21
36798;BME280;22748;8.426;99.512;2023-04-06T08:32:45;100246.88;;;34.87;42.90
36798;BME280;22748;8.426;99.512;2023-04-06T08:35:16;100241.72;;;34.86;42.77
36798;BME280;22748;8.426;99.512;2023-04-06T08:37:46;100235.97;;;34.82;43.41
36798;BME280;22748;8.426;99.512;2023-04-06T08:40:17;100230.03;;;34.85;43.79
36798;BME280;22748;8.426;99.512;2023-04-06T08:42:52;100230.34;;;34.89;43.57
36798;BME280;22748;8.426;99.512;2023-04-06T08:45:26;100234.44;;;34.91;43.18
36798;BME280;22748;8.426;99.512;2023-04-06T08:47:58;100238.53;;;34.94;42.75
36798;BME280;22748;8.426;99.512;2023-04-06T08:50:30;100241.78;;;34.96;42.03
36798;BME280;22748;8.426;99.512;2023-04-06T08:53:03;100238.00;;;34.97;42.14
36798;BME280;22748;8.426;99.512;2023-04-06T08:55:34;100243.69;;;34.95;42.66
36798;BME280;22748;8.426;99.512;2023-04-06T08:58:07;100244.78;;;34.99;41.89
36798;BME280;22748;8.426;99.512;2023-04-06T09:00:40;100226.31;;;34.96;41.49
36798;BME280;22748;8.426;99.512;2023-04-06T09:03:13;100228.78;;;34.98;41.42
36798;BME280;22748;8.426;99.512;2023-04-06T09:05:44;100222.00;;;34.95;42.05
36798;BME280;22748;8.426;99.512;2023-04-06T09:08:18;100216.81;;;34.94;42.14
36798;BME280;22748;8.426;99.512;2023-04-06T09:10:49;100221.72;;;34.97;42.52
36798;BME280;22748;8.426;99.512;2023-04-06T09:13:20;100213.75;;;34.85;42.52
36798;BME280;22748;8.426;99.512;2023-04-06T09:16:02;100221.66;;;34.87;42.75
36798;BME280;22748;8.426;99.512;2023-04-06T09:18:34;100219.28;;;34.95;42.64
36798;BME280;22748;8.426;99.512;2023-04-06T09:21:05;100211.72;;;35.02;42.75
36798;BME280;22748;8.426;99.512;2023-04-06T09:23:39;100217.16;;;35.08;42.51
36798;BME280;22748;8.426;99.512;2023-04-06T09:26:11;100214.53;;;35.13;42.50
36798;BME280;22748;8.426;99.512;2023-04-06T09:28:46;100219.97;;;35.13;42.59
36798;BME280;22748;8.426;99.512;2023-04-06T09:31:24;100219.69;;;35.14;42.55
36798;BME280;22748;8.426;99.512;2023-04-06T09:33:56;100213.47;;;35.19;41.93
36798;BME280;22748;8.426;99.512;2023-04-06T09:36:31;100216.22;;;35.24;41.76
36798;BME280;22748;8.426;99.512;2023-04-06T09:39:04;100214.59;;;35.23;42.04
36798;BME280;22748;8.426;99.512;2023-04-06T09:41:35;100205.38;;;35.24;42.03
36798;BME280;22748;8.426;99.512;2023-04-06T09:44:08;100208.34;;;35.22;42.47
36798;BME280;22748;8.426;99.512;2023-04-06T09:46:42;100205.59;;;35.17;42.69
36798;BME280;22748;8.426;99.512;2023-04-06T09:49:15;100201.81;;;35.18;42.55
36798;BME280;22748;8.426;99.512;2023-04-06T09:51:49;100194.44;;;35.14;42.82
36798;BME280;22748;8.426;99.512;2023-04-06T09:54:24;100203.91;;;35.11;43.13
36798;BME280;22748;8.426;99.512;2023-04-06T09:57:06;100192.25;;;35.11;42.57
36798;BME280;22748;8.426;99.512;2023-04-06T09:59:43;100197.38;;;35.12;42.45
36798;BME280;22748;8.426;99.512;2023-04-06T10:02:22;100210.72;;;35.14;42.31
36798;BME280;22748;8.426;99.512;2023-04-06T10:05:02;100221.91;;;35.17;42.86
36798;BME280;22748;8.426;99.512;2023-04-06T10:07:34;100240.91;;;35.22;44.60
36798;BME280;22748;8.426;99.512;2023-04-06T10:10:09;100252.72;;;35.06;45.53
36798;BME280;22748;8.426;99.512;2023-04-06T10:12:40;100271.38;;;34.97;47.88
36798;BME280;22748;8.426;99.512;2023-04-06T10:15:14;100284.56;;;34.56;49.86
36798;BME280;22748;8.426;99.512;2023-04-06T10:17:47;100301.16;;;33.94;51.16
36798;BME280;22748;8.426;99.512;2023-04-06T10:20:25;100320.50;;;34.03;50.97
36798;BME280;22748;8.426;99.512;2023-04-06T10:23:02;100339.94;;;34.16;51.73
36798;BME280;22748;8.426;99.512;2023-04-06T10:25:36;100351.69;;;34.22;51.64
36798;BME280;22748;8.426;99.512;2023-04-06T10:28:07;100337.69;;;34.30;51.64
36798;BME280;22748;8.426;99.512;2023-04-06T10:30:43;100324.38;;;34.29;51.24
36798;BME280;22748;8.426;99.512;2023-04-06T10:33:17;100302.84;;;34.17;51.18
36798;BME280;22748;8.426;99.512;2023-04-06T10:35:48;100308.03;;;34.01;51.67
36798;BME280;22748;8.426;99.512;2023-04-06T10:38:20;100319.88;;;33.95;51.72
36798;BME280;22748;8.426;99.512;2023-04-06T10:40:52;100349.34;;;33.92;52.27
36798;BME280;22748;8.426;99.512;2023-04-06T10:43:25;100362.91;;;33.92;52.14
36798;BME280;22748;8.426;99.512;2023-04-06T10:45:56;100385.09;;;33.89;52.32
36798;BME280;22748;8.426;99.512;2023-04-06T10:48:37;100412.66;;;33.86;52.30
36798;BME280;22748;8.426;99.512;2023-04-06T10:51:12;100429.97;;;33.85;52.33
36798;BME280;22748;8.426;99.512;2023-04-06T10:53:45;100457.47;;;33.76;51.91
36798;BME280;22748;8.426;99.512;2023-04-06T10:56:21;100476.03;;;33.85;51.95
36798;BME280;22748;8.426;99.512;2023-04-06T10:58:54;100470.63;;;33.85;52.12
36798;BME280;22748;8.426;99.512;2023-04-06T11:01:26;100461.75;;;33.72;52.62
36798;BME280;22748;8.426;99.512;2023-04-06T11:04:01;100463.13;;;33.75;52.49
36798;BME280;22748;8.426;99.512;2023-04-06T11:06:32;100465.03;;;33.74;52.74
36798;BME280;22748;8.426;99.512;2023-04-06T11:09:03;100487.19;;;33.71;53.02
36798;BME280;22748;8.426;99.512;2023-04-06T11:11:39;100504.44;;;33.65;52.92
36798;BME280;22748;8.426;99.512;2023-04-06T11:14:10;100513.03;;;33.62;52.95
36798;BME280;22748;8.426;99.512;2023-04-06T11:16:41;100514.91;;;33.62;51.84
36798;BME280;22748;8.426;99.512;2023-04-06T11:19:15;100514.00;;;33.56;51.64
36798;BME280;22748;8.426;99.512;2023-04-06T11:21:47;100510.59;;;33.49;50.77
36798;BME280;22748;8.426;99.512;2023-04-06T11:24:19;100506.25;;;33.48;50.64
36798;BME280;22748;8.426;99.512;2023-04-06T11:26:57;100506.63;;;33.39;50.09
36798;BME280;22748;8.426;99.512;2023-04-06T11:29:32;100506.63;;;33.39;49.92
36798;BME280;22748;8.426;99.512;2023-04-06T11:32:06;100501.38;;;33.33;50.58
36798;BME280;22748;8.426;99.512;2023-04-06T11:34:40;100494.47;;;33.25;50.53
36798;BME280;22748;8.426;99.512;2023-04-06T11:37:12;100484.78;;;33.12;50.80
36798;BME280;22748;8.426;99.512;2023-04-06T11:39:48;100476.06;;;32.98;51.16
36798;BME280;22748;8.426;99.512;2023-04-06T11:42:35;100480.00;;;32.79;50.93
36798;BME280;22748;8.426;99.512;2023-04-06T11:45:08;100493.34;;;32.69;51.71
36798;BME280;22748;8.426;99.512;2023-04-06T11:47:40;100505.19;;;32.68;52.07
36798;BME280;22748;8.426;99.512;2023-04-06T11:50:14;100502.03;;;32.71;51.86
36798;BME280;22748;8.426;99.512;2023-04-06T11:52:45;100515.06;;;32.74;51.87
36798;BME280;22748;8.426;99.512;2023-04-06T11:55:19;100516.00;;;32.68;52.01
36798;BME280;22748;8.426;99.512;2023-04-06T11:57:50;100524.47;;;32.59;51.93
36798;BME280;22748;8.426;99.512;2023-04-06T12:00:20;100524.38;;;32.54;51.92
36798;BME280;22748;8.426;99.512;2023-04-06T12:02:51;100529.88;;;32.59;52.29
36798;BME280;22748;8.426;99.512;2023-04-06T12:05:25;100521.91;;;32.65;52.41
36798;BME280;22748;8.426;99.512;2023-04-06T12:07:56;100511.78;;;32.72;52.45
36798;BME280;22748;8.426;99.512;2023-04-06T12:10:25;100502.13;;;32.76;52.31
36798;BME280;22748;8.426;99.512;2023-04-06T12:13:00;100503.31;;;32.80;52.42
36798;BME280;22748;8.426;99.512;2023-04-06T12:15:31;100512.47;;;32.79;52.35
36798;BME280;22748;8.426;99.512;2023-04-06T12:18:00;100513.41;;;32.73;51.98
36798;BME280;22748;8.426;99.512;2023-04-06T12:20:34;100518.81;;;32.73;52.04
36798;BME280;22748;8.426;99.512;2023-04-06T12:23:04;100519.66;;;32.73;52.63
36798;BME280;22748;8.426;99.512;2023-04-06T12:25:41;100515.56;;;32.71;52.67
36798;BME280;22748;8.426;99.512;2023-04-06T12:28:13;100519.06;;;32.71;52.54
36798;BME280;22748;8.426;99.512;2023-04-06T12:30:44;100526.13;;;32.72;52.88
36798;BME280;22748;8.426;99.512;2023-04-06T12:33:20;100526.47;;;32.76;53.03
36798;BME280;22748;8.426;99.512;2023-04-06T12:36:10;100521.78;;;32.71;52.63
36798;BME280;22748;8.426;99.512;2023-04-06T12:38:47;100522.69;;;32.77;52.60
36798;BME280;22748;8.426;99.512;2023-04-06T12:41:18;100522.69;;;32.77;52.79
36798;BME280;22748;8.426;99.512;2023-04-06T12:43:53;100517.88;;;32.79;53.04
36798;BME280;22748;8.426;99.512;2023-04-06T12:46:24;100531.97;;;32.81;52.94
36798;BME280;22748;8.426;99.512;2023-04-06T12:48:56;100529.84;;;32.83;52.80
36798;BME280;22748;8.426;99.512;2023-04-06T12:51:44;100529.03;;;32.83;53.22
36798;BME280;22748;8.426;99.512;2023-04-06T12:54:17;100526.56;;;32.81;53.42
36798;BME280;22748;8.426;99.512;2023-04-06T12:56:49;100521.16;;;32.81;53.31
36798;BME280;22748;8.426;99.512;2023-04-06T12:59:19;100529.84;;;32.83;53.20
36798;BME280;22748;8.426;99.512;2023-04-06T13:01:49;100536.94;;;32.84;53.24
36798;BME280;22748;8.426;99.512;2023-04-06T13:04:20;100538.47;;;32.80;53.24
36798;BME280;22748;8.426;99.512;2023-04-06T13:06:53;100544.22;;;32.72;53.24
36798;BME280;22748;8.426;99.512;2023-04-06T13:09:25;100539.53;;;32.67;53.18
36798;BME280;22748;8.426;99.512;2023-04-06T13:11:56;100546.47;;;32.63;53.39
36798;BME280;22748;8.426;99.512;2023-04-06T13:14:26;100553.88;;;32.56;53.67
36798;BME280;22748;8.426;99.512;2023-04-06T13:16:57;100549.97;;;32.52;53.63
36798;BME280;22748;8.426;99.512;2023-04-06T13:19:28;100549.84;;;32.47;53.52
36798;BME280;22748;8.426;99.512;2023-04-06T13:22:05;100560.31;;;32.43;53.48